createdAt,value
2018-05-31T00:01:26.536Z,41.43
2018-05-31T00:03:52.925Z,41.38
2018-05-31T00:06:21.036Z,41.35
2018-05-31T00:08:47.566Z,41.29
2018-05-31T00:11:13.971Z,41.21
2018-05-31T00:13:40.250Z,41.16
2018-05-31T00:16:06.611Z,41.17
2018-05-31T00:18:33.042Z,41.13
2018-05-31T00:20:59.258Z,41.09
2018-05-31T00:23:25.712Z,41.07
2018-05-31T00:25:52.135Z,41.04
2018-05-31T00:28:18.369Z,41.06
2018-05-31T00:30:44.821Z,41.01
2018-05-31T00:33:11.295Z,41.03
2018-05-31T00:35:37.730Z,41.01
2018-05-31T00:38:04.233Z,40.95
2018-05-31T00:40:30.758Z,40.92
2018-05-31T00:42:57.013Z,40.87
2018-05-31T00:45:23.567Z,40.87
2018-05-31T00:47:49.917Z,40.85
2018-05-31T00:50:16.154Z,40.83
2018-05-31T00:52:42.696Z,40.85
2018-05-31T00:55:09.115Z,40.83
2018-05-31T00:57:35.303Z,40.83
2018-05-31T01:00:01.657Z,40.83
2018-05-31T01:02:27.943Z,40.83
2018-05-31T01:04:54.228Z,40.83
2018-05-31T01:07:20.513Z,40.86
2018-05-31T01:09:47.009Z,40.90
2018-05-31T01:12:13.207Z,40.94
2018-05-31T01:14:39.561Z,40.99
2018-05-31T01:17:06.052Z,40.99
2018-05-31T01:19:32.298Z,41.03
2018-05-31T01:21:58.560Z,41.05
2018-05-31T01:24:25.103Z,41.10
2018-05-31T01:26:51.344Z,41.13
2018-05-31T01:29:17.841Z,41.13
2018-05-31T01:31:44.312Z,41.18
2018-05-31T01:34:10.599Z,41.17
2018-05-31T01:36:37.150Z,41.19
2018-05-31T01:39:03.739Z,41.26
2018-05-31T01:41:30.003Z,41.32
2018-05-31T01:43:56.311Z,41.36
2018-05-31T01:46:22.806Z,41.33
2018-05-31T01:48:49.023Z,41.33
2018-05-31T01:51:15.479Z,41.36
2018-05-31T01:53:41.908Z,41.39
2018-05-31T01:56:08.137Z,41.40
2018-05-31T01:58:34.593Z,41.41
2018-05-31T02:01:00.873Z,41.42
2018-05-31T02:03:27.129Z,41.42
2018-05-31T02:05:53.518Z,41.41
2018-05-31T02:08:20.018Z,41.40
2018-05-31T02:10:46.247Z,41.41
2018-05-31T02:13:12.704Z,41.45
2018-05-31T02:15:39.130Z,41.48
2018-05-31T02:18:05.344Z,41.52
2018-05-31T02:20:31.724Z,41.51
2018-05-31T02:22:58.095Z,41.55
2018-05-31T02:25:24.348Z,41.58
2018-05-31T02:27:50.772Z,41.57
2018-05-31T02:30:17.073Z,41.57
2018-05-31T02:32:43.334Z,41.58
2018-05-31T02:35:09.791Z,41.59
2018-05-31T02:37:36.404Z,41.64
2018-05-31T02:40:02.706Z,41.62
2018-05-31T02:42:28.976Z,41.67
2018-05-31T02:44:55.399Z,41.65
2018-05-31T02:47:21.660Z,41.65
2018-05-31T02:49:48.141Z,41.66
2018-05-31T02:52:14.609Z,41.67
2018-05-31T02:54:40.827Z,41.66
2018-05-31T02:57:07.335Z,41.75
2018-05-31T02:59:33.909Z,41.80
2018-05-31T03:02:00.120Z,41.81
2018-05-31T03:04:26.413Z,41.81
2018-05-31T03:06:52.947Z,41.86
2018-05-31T03:09:19.230Z,41.85
2018-05-31T03:11:45.608Z,41.84
2018-05-31T03:14:12.033Z,41.84
2018-05-31T03:16:38.283Z,41.89
2018-05-31T03:19:04.725Z,41.91
2018-05-31T03:21:31.130Z,41.94
2018-05-31T03:23:57.351Z,41.96
2018-05-31T03:26:23.879Z,41.96
2018-05-31T03:28:50.235Z,41.99
2018-05-31T03:31:16.517Z,41.99
2018-05-31T03:33:42.919Z,42.00
2018-05-31T03:36:09.392Z,42.02
2018-05-31T03:38:35.940Z,42.06
2018-05-31T03:41:02.321Z,42.08
2018-05-31T03:43:28.747Z,42.07
2018-05-31T03:45:54.984Z,42.13
2018-05-31T03:48:21.441Z,42.12
2018-05-31T03:50:47.773Z,42.11
2018-05-31T03:53:13.982Z,42.17
2018-05-31T03:55:40.298Z,42.20
2018-05-31T03:58:06.704Z,42.21
2018-05-31T04:00:32.988Z,42.24
2018-05-31T04:02:59.512Z,42.31
2018-05-31T04:05:25.900Z,42.35
2018-05-31T04:07:52.144Z,42.36
2018-05-31T04:10:18.549Z,42.32
2018-05-31T04:12:44.990Z,42.32
2018-05-31T04:15:11.229Z,42.33
2018-05-31T04:17:37.721Z,42.32
2018-05-31T04:20:04.228Z,42.36
2018-05-31T04:22:30.422Z,42.33
2018-05-31T04:24:56.885Z,42.35
2018-05-31T04:27:23.265Z,42.35
2018-05-31T04:29:49.553Z,42.35
2018-05-31T04:32:15.899Z,42.36
2018-05-31T04:34:42.198Z,42.33
2018-05-31T04:37:08.465Z,42.31
2018-05-31T04:39:35.233Z,42.23
2018-05-31T04:42:01.581Z,42.24
2018-05-31T04:44:27.817Z,42.24
2018-05-31T04:46:54.328Z,42.22
2018-05-31T04:49:20.705Z,42.21
2018-05-31T04:51:47.056Z,42.21
2018-05-31T04:54:13.454Z,42.15
2018-05-31T04:56:39.844Z,42.15
2018-05-31T04:59:06.114Z,42.16
2018-05-31T05:01:32.525Z,42.10
2018-05-31T05:03:58.886Z,42.07
2018-05-31T05:06:25.163Z,41.99
2018-05-31T05:08:51.638Z,41.95
2018-05-31T05:11:18.009Z,41.85
2018-05-31T05:13:44.278Z,41.78
2018-05-31T05:16:10.615Z,41.76
2018-05-31T05:18:37.340Z,41.73
2018-05-31T05:21:03.615Z,41.70
2018-05-31T05:23:30.087Z,41.63
2018-05-31T05:25:56.564Z,41.57
2018-05-31T05:28:22.806Z,41.48
2018-05-31T05:30:49.216Z,41.38
2018-05-31T05:33:15.719Z,41.32
2018-05-31T05:35:41.862Z,41.16
2018-05-31T05:38:08.221Z,41.04
2018-05-31T05:40:34.600Z,40.99
2018-05-31T05:43:00.815Z,40.99
2018-05-31T05:45:27.219Z,40.95
2018-05-31T05:47:53.795Z,40.86
2018-05-31T05:50:20.039Z,40.88
2018-05-31T05:52:46.412Z,40.84
2018-05-31T05:55:12.754Z,40.80
2018-05-31T05:57:38.988Z,40.76
2018-05-31T06:00:05.396Z,40.69
2018-05-31T06:02:31.811Z,40.67
2018-05-31T06:04:58.097Z,40.63
2018-05-31T06:07:24.472Z,40.64
2018-05-31T06:09:50.944Z,40.56
2018-05-31T06:12:17.185Z,40.39
2018-05-31T06:14:43.618Z,40.27
2018-05-31T06:17:10.163Z,40.18
2018-05-31T06:19:36.386Z,40.16
2018-05-31T06:22:02.758Z,40.15
2018-05-31T06:24:29.143Z,40.05
2018-05-31T06:26:55.350Z,39.96
2018-05-31T06:29:21.785Z,39.81
2018-05-31T06:31:48.195Z,39.79
2018-05-31T06:34:14.458Z,39.73
2018-05-31T06:36:40.837Z,39.71
2018-05-31T06:39:07.171Z,39.65
2018-05-31T06:41:33.456Z,39.50
2018-05-31T06:43:59.802Z,39.39
2018-05-31T06:46:26.181Z,39.36
2018-05-31T06:48:52.384Z,39.29
2018-05-31T06:51:18.685Z,39.13
2018-05-31T06:53:44.975Z,38.94
2018-05-31T06:56:11.193Z,38.77
2018-05-31T06:58:37.624Z,38.69
2018-05-31T07:01:03.936Z,38.68
2018-05-31T07:03:30.118Z,38.79
2018-05-31T07:05:56.394Z,38.58
2018-05-31T07:08:22.718Z,38.40
2018-05-31T07:10:51.835Z,38.41
2018-05-31T07:13:18.208Z,38.37
2018-05-31T07:15:44.779Z,38.24
2018-05-31T07:18:11.015Z,38.10
2018-05-31T07:20:37.391Z,38.04
2018-05-31T07:23:03.866Z,38.00
2018-05-31T07:25:30.043Z,37.93
2018-05-31T07:27:56.420Z,37.83
2018-05-31T07:30:22.798Z,37.77
2018-05-31T07:32:49.046Z,37.68
2018-05-31T07:35:15.428Z,37.54
2018-05-31T07:37:41.938Z,37.46
2018-05-31T07:40:08.147Z,37.31
2018-05-31T07:42:34.852Z,37.25
2018-05-31T07:45:01.305Z,37.21
2018-05-31T07:47:27.607Z,37.23
2018-05-31T07:49:54.092Z,37.29
2018-05-31T07:52:20.540Z,37.34
2018-05-31T07:54:46.759Z,37.32
2018-05-31T07:57:13.142Z,37.23
2018-05-31T07:59:39.599Z,37.17
2018-05-31T08:02:05.831Z,37.03
2018-05-31T08:04:32.232Z,37.01
2018-05-31T08:06:58.606Z,36.88
2018-05-31T08:09:24.834Z,36.84
2018-05-31T08:11:51.275Z,36.90
2018-05-31T08:14:17.679Z,36.89
2018-05-31T08:16:43.943Z,36.77
2018-05-31T08:19:10.377Z,36.80
2018-05-31T08:21:36.818Z,36.70
2018-05-31T08:24:03.040Z,36.59
2018-05-31T08:26:29.369Z,36.61
2018-05-31T08:28:55.662Z,36.68
2018-05-31T08:31:21.966Z,36.65
2018-05-31T08:33:48.369Z,36.61
2018-05-31T08:36:14.910Z,36.69
2018-05-31T08:38:41.123Z,36.62
2018-05-31T08:41:07.415Z,36.56
2018-05-31T08:43:33.916Z,36.51
2018-05-31T08:46:00.124Z,36.32
2018-05-31T08:48:26.595Z,36.00
2018-05-31T08:50:53.070Z,35.88
2018-05-31T08:53:19.349Z,35.65
2018-05-31T08:55:45.726Z,35.36
2018-05-31T08:58:12.149Z,35.41
2018-05-31T09:00:38.380Z,35.45
2018-05-31T09:03:04.706Z,35.22
2018-05-31T09:05:31.109Z,35.19
2018-05-31T09:07:57.345Z,35.21
2018-05-31T09:10:23.828Z,35.29
2018-05-31T09:12:50.153Z,35.37
2018-05-31T09:15:16.445Z,35.24
2018-05-31T09:17:42.935Z,35.38
2018-05-31T09:20:09.440Z,35.12
2018-05-31T09:22:35.650Z,35.16
2018-05-31T09:25:02.145Z,34.88
2018-05-31T09:27:28.654Z,34.59
2018-05-31T09:29:54.875Z,34.31
2018-05-31T09:32:21.232Z,34.17
2018-05-31T09:34:47.687Z,34.28
2018-05-31T09:37:13.881Z,34.33
2018-05-31T09:39:40.344Z,34.22
2018-05-31T09:42:06.823Z,33.80
2018-05-31T09:44:33.352Z,33.35
2018-05-31T09:46:59.712Z,32.78
2018-05-31T09:49:26.219Z,32.10
2018-05-31T09:51:52.508Z,31.74
2018-05-31T09:54:18.994Z,31.62
2018-05-31T09:56:45.465Z,31.23
2018-05-31T09:59:11.673Z,31.02
2018-05-31T10:01:38.105Z,30.71
2018-05-31T10:04:04.500Z,30.45
2018-05-31T10:06:30.723Z,30.46
2018-05-31T10:08:57.104Z,30.37
2018-05-31T10:11:23.404Z,30.23
2018-05-31T10:14:04.687Z,30.35
2018-05-31T10:16:31.067Z,30.21
2018-05-31T10:18:57.327Z,30.42
2018-05-31T10:21:23.659Z,30.24
2018-05-31T10:23:50.054Z,30.12
2018-05-31T10:26:16.325Z,29.64
2018-05-31T10:28:42.674Z,29.85
2018-05-31T10:31:09.167Z,29.92
2018-05-31T10:33:35.367Z,29.63
2018-05-31T10:36:01.768Z,29.63
2018-05-31T10:38:28.105Z,29.52
2018-05-31T10:40:54.307Z,29.51
2018-05-31T10:43:20.741Z,29.34
2018-05-31T10:45:47.305Z,29.32
2018-05-31T10:48:13.504Z,29.37
2018-05-31T10:50:39.914Z,29.02
2018-05-31T10:53:06.367Z,29.16
2018-05-31T10:55:32.634Z,29.02
2018-05-31T10:57:59.011Z,28.92
2018-05-31T11:00:25.431Z,28.91
2018-05-31T11:02:51.628Z,28.89
2018-05-31T11:05:18.064Z,28.65
2018-05-31T11:07:44.391Z,28.49
2018-05-31T11:10:10.622Z,28.32
2018-05-31T11:12:37.042Z,28.06
2018-05-31T11:15:03.622Z,27.80
2018-05-31T11:17:29.846Z,27.53
2018-05-31T11:19:56.232Z,27.54
2018-05-31T11:22:22.658Z,27.57
2018-05-31T11:24:48.896Z,27.67
2018-05-31T11:27:15.279Z,27.38
2018-05-31T11:29:41.617Z,27.17
2018-05-31T11:32:07.839Z,27.35
2018-05-31T11:34:34.204Z,27.17
2018-05-31T11:37:00.618Z,27.07
2018-05-31T11:39:26.824Z,27.24
2018-05-31T11:41:53.287Z,27.16
2018-05-31T11:44:19.784Z,26.81
2018-05-31T11:46:46.148Z,26.86
2018-05-31T11:49:12.602Z,26.68
2018-05-31T11:51:39.006Z,26.60
2018-05-31T11:54:05.193Z,26.63
2018-05-31T11:56:31.699Z,26.57
2018-05-31T11:58:58.196Z,26.48
2018-05-31T12:01:24.491Z,26.38
2018-05-31T12:03:50.937Z,26.39
2018-05-31T12:06:17.297Z,26.63
2018-05-31T12:08:43.624Z,26.58
2018-05-31T12:11:10.088Z,26.60
2018-05-31T12:13:36.481Z,26.58
2018-05-31T12:16:02.850Z,26.31
2018-05-31T12:18:29.382Z,26.33
2018-05-31T12:20:55.861Z,26.53
2018-05-31T12:23:22.083Z,26.46
2018-05-31T12:25:48.542Z,26.46
2018-05-31T12:28:14.829Z,26.63
2018-05-31T12:30:41.061Z,26.66
2018-05-31T12:33:07.522Z,26.64
2018-05-31T12:35:33.980Z,26.82
2018-05-31T12:38:00.238Z,26.85
2018-05-31T12:40:26.675Z,26.92
2018-05-31T12:42:53.093Z,26.92
2018-05-31T12:45:19.374Z,27.09
2018-05-31T12:47:46.017Z,26.98
2018-05-31T12:50:12.329Z,26.78
2018-05-31T12:52:38.571Z,26.84
2018-05-31T12:55:04.998Z,27.05
2018-05-31T12:57:31.405Z,27.09
2018-05-31T12:59:57.607Z,27.14
2018-05-31T13:02:23.983Z,27.22
2018-05-31T13:04:50.387Z,27.33
2018-05-31T13:07:16.621Z,27.33
2018-05-31T13:09:43.113Z,27.32
2018-05-31T13:12:09.656Z,27.34
2018-05-31T13:14:35.906Z,27.49
2018-05-31T13:17:02.318Z,27.36
2018-05-31T13:19:28.724Z,27.20
2018-05-31T13:21:54.899Z,27.07
2018-05-31T13:24:21.246Z,27.19
2018-05-31T13:26:47.715Z,27.31
2018-05-31T13:29:13.938Z,27.46
2018-05-31T13:31:40.416Z,27.63
2018-05-31T13:34:06.811Z,27.81
2018-05-31T13:36:33.023Z,27.88
2018-05-31T13:38:59.393Z,28.00
2018-05-31T13:41:25.845Z,28.19
2018-05-31T13:43:52.065Z,28.21
2018-05-31T13:46:18.562Z,28.16
2018-05-31T13:48:45.131Z,28.08
2018-05-31T13:51:11.362Z,27.98
2018-05-31T13:53:37.696Z,27.83
2018-05-31T13:56:04.127Z,27.69
2018-05-31T13:58:30.346Z,27.55
2018-05-31T14:00:56.706Z,27.74
2018-05-31T14:03:23.153Z,27.77
2018-05-31T14:05:49.374Z,27.88
2018-05-31T14:08:15.852Z,28.00
2018-05-31T14:10:42.225Z,28.07
2018-05-31T14:13:08.462Z,28.09
2018-05-31T14:15:34.863Z,28.18
2018-05-31T14:18:01.319Z,28.34
2018-05-31T14:20:34.724Z,28.35
2018-05-31T14:23:01.026Z,28.33
2018-05-31T14:25:27.471Z,28.46
2018-05-31T14:27:53.774Z,28.59
2018-05-31T14:30:20.174Z,28.66
2018-05-31T14:32:46.692Z,28.69
2018-05-31T14:35:12.906Z,28.85
2018-05-31T14:37:39.366Z,28.98
2018-05-31T14:40:05.879Z,29.12
2018-05-31T14:42:32.119Z,29.26
2018-05-31T14:44:58.584Z,29.28
2018-05-31T14:47:25.038Z,29.36
2018-05-31T14:49:51.466Z,29.38
2018-05-31T14:52:17.853Z,29.48
2018-05-31T14:54:44.271Z,29.62
2018-05-31T14:57:10.536Z,29.78
2018-05-31T14:59:36.842Z,29.91
2018-05-31T15:02:03.320Z,29.95
2018-05-31T15:04:29.567Z,29.91
2018-05-31T15:06:55.907Z,29.97
2018-05-31T15:09:22.404Z,30.08
2018-05-31T15:11:48.638Z,30.16
2018-05-31T15:14:15.080Z,30.33
2018-05-31T15:19:07.532Z,30.57
2018-05-31T15:21:33.850Z,30.74
2018-05-31T15:24:00.269Z,30.77
2018-05-31T15:26:26.514Z,30.79
2018-05-31T15:28:53.000Z,30.93
2018-05-31T15:31:19.354Z,30.88
2018-05-31T15:33:45.604Z,30.94
2018-05-31T15:36:12.028Z,31.01
2018-05-31T15:38:38.327Z,31.05
2018-05-31T15:41:04.576Z,30.91
2018-05-31T15:43:30.957Z,30.78
2018-05-31T15:45:57.281Z,30.78
2018-05-31T15:48:23.482Z,30.59
2018-05-31T15:50:50.036Z,30.50
2018-05-31T15:53:16.492Z,30.51
2018-05-31T15:55:42.743Z,30.48
2018-05-31T15:58:09.133Z,30.53
2018-05-31T16:00:35.501Z,30.64
2018-05-31T16:03:01.781Z,30.76
2018-05-31T16:05:28.195Z,30.76
2018-05-31T16:07:54.600Z,30.77
2018-05-31T16:10:20.857Z,30.73
2018-05-31T16:12:47.214Z,30.73
2018-05-31T16:15:13.674Z,30.75
2018-05-31T16:17:39.945Z,30.89
2018-05-31T16:20:06.243Z,31.02
2018-05-31T16:22:32.549Z,31.11
2018-05-31T16:24:58.790Z,31.16
2018-05-31T16:27:25.155Z,31.37
2018-05-31T16:29:51.644Z,31.48
2018-05-31T16:32:17.833Z,31.51
2018-05-31T16:34:44.250Z,31.71
2018-05-31T16:37:10.720Z,31.92
2018-05-31T16:39:36.922Z,31.98
2018-05-31T16:42:03.328Z,32.13
2018-05-31T16:44:29.817Z,32.24
2018-05-31T16:46:56.106Z,32.35
2018-05-31T16:49:22.420Z,32.54
2018-05-31T16:51:49.041Z,32.68
2018-05-31T16:54:15.066Z,32.82
2018-05-31T16:56:41.425Z,32.90
2018-05-31T16:59:07.810Z,32.98
2018-05-31T17:01:34.021Z,33.03
2018-05-31T17:04:00.670Z,33.16
2018-05-31T17:06:26.934Z,33.24
2018-05-31T17:08:53.145Z,33.28
2018-05-31T17:11:19.570Z,33.44
2018-05-31T17:13:45.951Z,33.49
2018-05-31T17:16:12.233Z,33.51
2018-05-31T17:18:38.507Z,33.60
2018-05-31T17:21:04.828Z,33.66
2018-05-31T17:23:30.938Z,33.76
2018-05-31T17:25:57.068Z,33.85
2018-05-31T17:28:23.290Z,33.94
2018-05-31T17:30:49.417Z,34.13
2018-05-31T17:33:15.548Z,34.24
2018-05-31T17:35:41.677Z,34.38
2018-05-31T17:38:07.743Z,34.57
2018-05-31T17:40:33.935Z,34.68
2018-05-31T17:43:00.376Z,34.80
2018-05-31T17:45:26.553Z,34.91
2018-05-31T17:47:52.846Z,35.04
2018-05-31T17:50:19.142Z,35.23
2018-05-31T17:52:45.528Z,35.32
2018-05-31T17:55:12.018Z,35.42
2018-05-31T17:57:38.379Z,35.52
2018-05-31T18:00:04.649Z,35.62
2018-05-31T18:02:30.929Z,35.83
2018-05-31T18:04:57.230Z,35.92
2018-05-31T18:07:23.426Z,36.04
2018-05-31T18:09:49.872Z,36.16
2018-05-31T18:12:16.358Z,36.29
2018-05-31T18:14:42.626Z,36.38
2018-05-31T18:17:08.997Z,36.51
2018-05-31T18:19:35.452Z,36.54
2018-05-31T18:22:01.756Z,36.60
2018-05-31T18:24:28.263Z,36.70
2018-05-31T18:26:54.740Z,36.81
2018-05-31T18:29:20.985Z,36.85
2018-05-31T18:31:47.452Z,36.96
2018-05-31T18:34:13.750Z,37.12
2018-05-31T18:36:39.966Z,37.27
2018-05-31T18:39:06.326Z,37.42
2018-05-31T18:41:32.638Z,37.45
2018-05-31T18:43:58.920Z,37.54
2018-05-31T18:46:25.155Z,37.66
2018-05-31T18:48:51.607Z,37.75
2018-05-31T18:51:18.585Z,37.85
2018-05-31T18:53:45.030Z,37.90
2018-05-31T18:56:11.389Z,38.03
2018-05-31T18:58:37.742Z,38.10
2018-05-31T19:01:04.033Z,38.21
2018-05-31T19:03:30.452Z,38.33
2018-05-31T19:05:56.772Z,38.36
2018-05-31T19:08:23.096Z,38.45
2018-05-31T19:10:49.256Z,38.55
2018-05-31T19:13:21.369Z,38.71
2018-05-31T19:15:47.778Z,38.75
2018-05-31T19:18:19.977Z,38.81
2018-05-31T19:20:46.516Z,38.91
2018-05-31T19:23:12.837Z,39.02
2018-05-31T19:25:38.926Z,39.12
2018-05-31T19:28:05.363Z,39.20
2018-05-31T19:30:37.518Z,39.31
2018-05-31T19:33:03.783Z,39.38
2018-05-31T19:35:36.119Z,39.47
2018-05-31T19:38:02.678Z,39.53
2018-05-31T19:40:28.965Z,39.60
2018-05-31T19:43:01.212Z,39.70
2018-05-31T19:45:27.555Z,39.82
2018-05-31T19:47:53.711Z,39.94
2018-05-31T19:50:19.938Z,40.02
2018-05-31T19:52:52.265Z,40.14
2018-05-31T19:55:18.660Z,40.22
2018-05-31T19:57:50.947Z,40.31
2018-05-31T20:00:23.258Z,40.28
2018-05-31T20:02:55.579Z,40.33
2018-05-31T20:05:22.012Z,40.37
2018-05-31T20:10:40.507Z,40.46
2018-05-31T20:13:06.726Z,40.47
2018-05-31T20:15:32.925Z,40.48
2018-05-31T20:17:59.523Z,40.48
2018-05-31T20:20:25.682Z,40.57
2018-05-31T20:22:51.928Z,40.62
2018-05-31T20:25:18.261Z,40.66
2018-05-31T20:27:44.464Z,40.66
2018-05-31T20:30:10.710Z,40.72
2018-05-31T20:32:37.042Z,40.80
2018-05-31T20:35:03.296Z,40.97
2018-05-31T20:37:29.527Z,40.95
2018-05-31T20:39:56.126Z,40.99
2018-05-31T20:42:22.291Z,41.11
2018-05-31T20:44:48.503Z,41.11
2018-05-31T20:47:15.171Z,41.26
2018-05-31T20:49:41.380Z,41.42
2018-05-31T20:52:07.583Z,41.59
2018-05-31T20:54:34.144Z,41.66
2018-05-31T20:57:00.470Z,41.76
2018-05-31T20:59:26.616Z,41.89
2018-05-31T21:01:53.192Z,41.98
2018-05-31T21:04:19.400Z,42.01
2018-05-31T21:06:45.531Z,42.08
2018-05-31T21:09:12.131Z,42.18
2018-05-31T21:11:38.342Z,42.26
2018-05-31T21:14:04.599Z,42.36
2018-05-31T21:16:31.093Z,42.42
2018-05-31T21:18:57.270Z,42.51
2018-05-31T21:21:23.450Z,42.65
2018-05-31T21:23:49.953Z,42.73
2018-05-31T21:26:16.170Z,42.79
2018-05-31T21:28:42.372Z,42.89
2018-05-31T21:31:08.820Z,42.97
2018-05-31T21:33:34.997Z,43.05
2018-05-31T21:36:01.157Z,43.14
2018-05-31T21:38:27.685Z,43.22
2018-05-31T21:40:53.861Z,43.21
2018-05-31T21:43:20.009Z,43.37
2018-05-31T21:45:46.408Z,43.43
2018-05-31T21:48:12.619Z,43.46
2018-05-31T21:50:38.778Z,43.50
2018-05-31T21:53:05.196Z,43.57
2018-05-31T21:55:31.429Z,43.60
2018-05-31T21:57:58.228Z,43.65
2018-05-31T22:00:30.307Z,43.67
2018-05-31T22:02:56.455Z,43.74
2018-05-31T22:05:22.840Z,43.79
2018-05-31T22:07:49.092Z,43.87
2018-05-31T22:10:15.282Z,43.90
2018-05-31T22:12:41.761Z,43.97
2018-05-31T22:15:08.102Z,44.04
2018-05-31T22:17:34.254Z,44.19
2018-05-31T22:20:00.586Z,44.31
2018-05-31T22:22:26.947Z,44.41
2018-05-31T22:24:53.157Z,44.53
2018-05-31T22:27:19.471Z,44.60
2018-05-31T22:29:45.740Z,44.69
2018-05-31T22:32:11.986Z,44.77
2018-05-31T22:34:38.371Z,44.90
2018-05-31T22:37:04.685Z,44.97
2018-05-31T22:39:30.941Z,45.11
2018-05-31T22:41:57.332Z,45.19
2018-05-31T22:44:23.804Z,45.34
2018-05-31T22:46:49.985Z,45.45
2018-05-31T22:49:16.381Z,45.52
2018-05-31T22:51:42.801Z,45.59
2018-05-31T22:54:09.016Z,45.62
2018-05-31T22:56:35.495Z,45.60
2018-05-31T22:59:02.163Z,45.58
2018-05-31T23:01:28.312Z,45.58
2018-05-31T23:03:54.771Z,45.60
2018-05-31T23:06:21.263Z,45.63
2018-05-31T23:08:47.498Z,45.64
2018-05-31T23:11:13.886Z,45.71
2018-05-31T23:13:40.390Z,45.73
2018-05-31T23:16:06.642Z,45.74
2018-05-31T23:18:33.090Z,45.78
2018-05-31T23:20:59.495Z,45.77
2018-05-31T23:23:25.710Z,45.82
2018-05-31T23:25:52.206Z,45.77
2018-05-31T23:28:18.620Z,45.79
2018-05-31T23:30:44.835Z,45.78
2018-05-31T23:33:11.222Z,45.79
2018-05-31T23:35:37.726Z,45.79
2018-05-31T23:38:03.961Z,45.78
2018-05-31T23:40:30.451Z,45.78
2018-05-31T23:42:56.943Z,45.77
2018-05-31T23:45:23.152Z,45.74
2018-05-31T23:47:49.590Z,45.76
2018-05-31T23:50:15.948Z,45.79
2018-05-31T23:52:42.122Z,45.83
2018-05-31T23:55:08.429Z,45.81
2018-05-31T23:57:34.823Z,45.79
